createdAt,value
2023-03-26T00:01:47.156Z,5.55
2023-03-26T00:04:14.949Z,5.32
2023-03-26T00:06:42.651Z,6.00
2023-03-26T00:09:14.210Z,6.20
2023-03-26T00:11:41.893Z,6.27
2023-03-26T00:14:13.764Z,5.97
2023-03-26T00:16:42.689Z,5.80
2023-03-26T00:19:10.887Z,6.00
2023-03-26T00:21:38.567Z,6.45
2023-03-26T00:24:08.515Z,6.13
2023-03-26T00:26:38.438Z,6.15
2023-03-26T00:29:08.178Z,6.05
2023-03-26T00:31:37.925Z,5.13
2023-03-26T00:34:05.836Z,5.97
2023-03-26T00:36:35.776Z,5.97
2023-03-26T00:39:05.531Z,6.28
2023-03-26T00:41:37.201Z,5.67
2023-03-26T00:44:06.523Z,6.13
2023-03-26T00:46:34.224Z,5.85
2023-03-26T00:49:03.844Z,6.10
2023-03-26T00:51:31.765Z,7.18
2023-03-26T00:53:59.513Z,6.40
2023-03-26T00:56:27.716Z,6.00
2023-03-26T00:58:55.497Z,5.40
2023-03-26T01:01:28.544Z,6.03
2023-03-26T01:04:15.394Z,6.15
2023-03-26T01:06:45.288Z,6.82
2023-03-26T01:09:16.218Z,6.25
2023-03-26T01:11:44.527Z,7.57
2023-03-26T01:14:14.444Z,7.10
2023-03-26T01:16:45.985Z,6.40
2023-03-26T01:19:18.281Z,6.53
2023-03-26T01:21:47.373Z,7.28
2023-03-26T01:24:16.643Z,7.65
2023-03-26T01:26:55.802Z,7.60
2023-03-26T01:29:31.627Z,8.00
2023-03-26T01:32:05.912Z,7.80
2023-03-26T01:34:42.919Z,8.20
2023-03-26T01:37:17.729Z,8.38
2023-03-26T01:39:53.022Z,8.35
2023-03-26T01:42:28.410Z,8.07
2023-03-26T01:44:58.695Z,7.38
2023-03-26T01:47:26.979Z,8.53
2023-03-26T01:49:54.700Z,8.25
2023-03-26T01:52:25.203Z,8.20
2023-03-26T01:54:55.536Z,7.97
2023-03-26T01:57:31.370Z,9.02
2023-03-26T02:00:11.736Z,8.00
2023-03-26T02:02:48.371Z,8.77
2023-03-26T02:05:20.962Z,8.77
2023-03-26T02:07:52.207Z,8.30
2023-03-26T02:10:25.074Z,8.27
2023-03-26T02:12:53.130Z,8.35
2023-03-26T02:15:21.336Z,9.07
2023-03-26T02:17:49.518Z,8.75
2023-03-26T02:20:18.894Z,9.32
2023-03-26T02:22:47.254Z,9.70
2023-03-26T02:25:16.980Z,9.07
2023-03-26T02:27:46.505Z,9.18
2023-03-26T02:30:16.620Z,8.55
2023-03-26T02:32:44.837Z,9.63
2023-03-26T02:35:13.083Z,9.38
2023-03-26T02:37:42.070Z,9.40
2023-03-26T02:40:11.736Z,8.77
2023-03-26T02:42:39.715Z,9.77
2023-03-26T02:45:10.308Z,8.85
2023-03-26T02:47:38.041Z,8.48
2023-03-26T02:50:06.636Z,8.98
2023-03-26T02:52:34.452Z,8.88
2023-03-26T02:55:02.153Z,9.68
2023-03-26T02:57:30.001Z,8.30
2023-03-26T02:59:57.824Z,8.13
2023-03-26T03:02:29.391Z,8.50
2023-03-26T03:05:01.929Z,8.27
2023-03-26T03:07:30.042Z,9.20
2023-03-26T03:10:03.266Z,8.30
2023-03-26T03:12:31.081Z,8.15
2023-03-26T03:14:58.743Z,7.75
2023-03-26T03:17:27.872Z,7.13
2023-03-26T03:19:55.638Z,7.63
2023-03-26T03:22:23.285Z,8.18
2023-03-26T03:24:53.221Z,8.25
2023-03-26T03:27:22.362Z,7.90
2023-03-26T03:29:53.737Z,7.35
2023-03-26T03:32:22.532Z,8.27
2023-03-26T03:34:51.811Z,8.38
2023-03-26T03:37:19.953Z,7.80
2023-03-26T03:39:47.678Z,7.45
2023-03-26T03:42:15.414Z,7.72
2023-03-26T03:44:43.140Z,8.30
2023-03-26T03:47:13.750Z,8.23
2023-03-26T03:49:41.777Z,7.85
2023-03-26T03:52:10.825Z,8.05
2023-03-26T03:54:38.463Z,7.30
2023-03-26T03:57:06.222Z,7.55
2023-03-26T03:59:33.916Z,7.80
2023-03-26T04:02:01.801Z,7.68
2023-03-26T04:04:29.569Z,8.43
2023-03-26T04:06:57.306Z,7.90
2023-03-26T04:09:26.511Z,7.55
2023-03-26T04:11:54.259Z,7.80
2023-03-26T04:14:21.984Z,7.85
2023-03-26T04:16:50.126Z,7.72
2023-03-26T04:19:18.006Z,8.30
2023-03-26T04:21:45.710Z,8.17
2023-03-26T04:24:13.655Z,8.63
2023-03-26T04:26:42.688Z,8.30
2023-03-26T04:29:12.874Z,8.95
2023-03-26T04:31:43.065Z,7.93
2023-03-26T04:34:18.353Z,7.25
2023-03-26T04:36:46.255Z,8.32
2023-03-26T04:39:14.252Z,7.80
2023-03-26T04:41:43.346Z,8.43
2023-03-26T04:44:11.827Z,8.95
2023-03-26T04:46:43.765Z,8.82
2023-03-26T04:49:11.645Z,8.02
2023-03-26T04:51:41.879Z,8.38
2023-03-26T04:54:12.668Z,8.50
2023-03-26T04:56:44.219Z,8.27
2023-03-26T04:59:15.001Z,8.85
2023-03-26T05:01:45.736Z,8.63
2023-03-26T05:04:14.138Z,9.50
2023-03-26T05:06:43.074Z,8.38
2023-03-26T05:09:11.189Z,8.45
2023-03-26T05:11:38.981Z,8.77
2023-03-26T05:14:08.143Z,10.05
2023-03-26T05:16:36.322Z,9.00
2023-03-26T05:19:04.025Z,9.25
2023-03-26T05:21:31.745Z,9.10
2023-03-26T05:23:59.440Z,9.13
2023-03-26T05:26:27.161Z,8.55
2023-03-26T05:28:54.806Z,9.65
2023-03-26T05:31:23.996Z,10.35
2023-03-26T05:33:52.014Z,10.20
2023-03-26T05:36:20.354Z,9.82
2023-03-26T05:38:49.635Z,8.70
2023-03-26T05:41:18.140Z,9.00
2023-03-26T05:43:47.829Z,9.10
2023-03-26T05:46:17.274Z,9.07
2023-03-26T05:48:46.687Z,8.93
2023-03-26T05:51:15.508Z,8.57
2023-03-26T05:53:43.339Z,9.25
2023-03-26T05:56:11.865Z,8.77
2023-03-26T05:58:39.599Z,9.68
2023-03-26T06:01:09.445Z,8.85
2023-03-26T06:03:40.257Z,9.23
2023-03-26T06:06:10.580Z,8.20
2023-03-26T06:08:39.357Z,8.82
2023-03-26T06:11:08.374Z,9.02
2023-03-26T06:13:36.129Z,9.38
2023-03-26T06:16:03.881Z,9.73
2023-03-26T06:18:31.576Z,9.52
2023-03-26T06:20:59.462Z,10.32
2023-03-26T06:23:28.486Z,10.35
2023-03-26T06:25:56.319Z,10.90
2023-03-26T06:28:24.105Z,11.00
2023-03-26T06:30:52.056Z,10.90
2023-03-26T06:33:21.125Z,11.80
2023-03-26T06:35:50.593Z,11.05
2023-03-26T06:38:18.373Z,10.63
2023-03-26T06:40:47.416Z,11.30
2023-03-26T06:43:15.258Z,10.93
2023-03-26T06:45:43.061Z,9.85
2023-03-26T06:48:10.826Z,10.90
2023-03-26T06:50:38.572Z,10.18
2023-03-26T06:53:06.326Z,11.75
2023-03-26T06:55:34.088Z,11.95
2023-03-26T06:58:03.203Z,11.45
2023-03-26T07:00:30.902Z,12.30
2023-03-26T07:02:58.688Z,11.43
2023-03-26T07:05:26.511Z,12.60
2023-03-26T07:07:54.302Z,11.77
2023-03-26T07:10:22.014Z,11.43
2023-03-26T07:12:49.780Z,12.93
2023-03-26T07:15:19.081Z,12.35
2023-03-26T07:17:46.846Z,12.13
2023-03-26T07:20:14.628Z,13.65
2023-03-26T07:22:43.029Z,14.43
2023-03-26T07:25:12.596Z,13.73
2023-03-26T07:27:47.937Z,13.07
2023-03-26T07:30:19.076Z,13.00
2023-03-26T07:32:51.888Z,12.67
2023-03-26T07:35:23.585Z,12.63
2023-03-26T07:37:59.231Z,11.57
2023-03-26T07:40:39.044Z,12.48
2023-03-26T07:43:13.314Z,12.68
2023-03-26T07:45:43.980Z,12.68
2023-03-26T07:48:17.025Z,12.48
2023-03-26T07:50:45.390Z,12.20
2023-03-26T07:53:13.594Z,12.60
2023-03-26T07:55:48.737Z,12.77
2023-03-26T07:58:29.101Z,12.52
2023-03-26T08:01:00.104Z,12.18
2023-03-26T08:03:45.012Z,10.80
2023-03-26T08:06:16.842Z,11.10
2023-03-26T08:08:49.954Z,9.63
2023-03-26T08:11:29.542Z,10.32
2023-03-26T08:14:04.446Z,10.25
2023-03-26T08:16:38.022Z,9.80
2023-03-26T08:19:16.603Z,9.02
2023-03-26T08:21:48.006Z,10.20
2023-03-26T08:24:20.388Z,10.05
2023-03-26T08:26:53.529Z,10.05
2023-03-26T08:29:27.440Z,9.70
2023-03-26T08:31:57.410Z,9.32
2023-03-26T08:34:25.409Z,9.48
2023-03-26T08:36:53.094Z,9.68
2023-03-26T08:39:22.276Z,9.65
2023-03-26T08:42:20.827Z,9.23
2023-03-26T08:45:27.038Z,8.75
2023-03-26T08:48:27.128Z,8.32
2023-03-26T08:51:43.062Z,8.63
2023-03-26T08:54:29.817Z,7.70
2023-03-26T08:57:10.921Z,7.72
2023-03-26T09:00:13.612Z,7.30
2023-03-26T09:03:05.178Z,6.20
2023-03-26T09:06:04.740Z,6.18
2023-03-26T09:08:59.217Z,5.60
2023-03-26T09:12:06.873Z,5.85
2023-03-26T09:15:16.679Z,5.90
2023-03-26T09:18:05.562Z,5.30
2023-03-26T09:20:57.646Z,5.60
2023-03-26T09:24:16.450Z,4.90
2023-03-26T09:26:48.178Z,4.67
2023-03-26T09:29:59.748Z,5.25
2023-03-26T09:32:52.126Z,4.82
2023-03-26T09:35:52.121Z,4.72
2023-03-26T09:38:33.003Z,5.03
2023-03-26T09:41:04.099Z,5.63
2023-03-26T09:43:49.451Z,5.40
2023-03-26T09:46:25.070Z,4.75
2023-03-26T09:49:03.143Z,5.55
2023-03-26T09:51:42.346Z,5.57
2023-03-26T09:54:30.417Z,5.72
2023-03-26T09:57:04.357Z,5.85
2023-03-26T09:59:58.576Z,5.15
2023-03-26T10:02:45.797Z,5.80
2023-03-26T10:05:45.604Z,6.00
2023-03-26T10:08:41.306Z,5.53
2023-03-26T10:11:17.902Z,5.70
2023-03-26T10:13:59.320Z,5.53
2023-03-26T10:16:31.278Z,5.43
2023-03-26T10:19:08.153Z,5.55
2023-03-26T10:21:42.979Z,5.20
2023-03-26T10:24:36.441Z,5.65
2023-03-26T10:27:13.196Z,5.10
2023-03-26T10:30:09.621Z,5.00
2023-03-26T10:32:45.431Z,4.68
2023-03-26T10:35:22.385Z,4.72
2023-03-26T10:38:02.799Z,5.03
2023-03-26T10:40:33.934Z,4.95
2023-03-26T10:43:20.794Z,4.97
2023-03-26T10:46:31.025Z,5.03
2023-03-26T10:49:37.613Z,5.03
2023-03-26T10:52:07.636Z,5.65
2023-03-26T10:54:42.847Z,5.45
2023-03-26T10:57:19.214Z,5.28
2023-03-26T10:59:48.462Z,5.22
2023-03-26T11:02:29.683Z,5.88
2023-03-26T11:05:10.124Z,5.45
2023-03-26T11:07:42.868Z,5.25
2023-03-26T11:10:13.829Z,5.57
2023-03-26T11:12:44.810Z,5.20
2023-03-26T11:15:21.793Z,5.55
2023-03-26T11:17:58.366Z,5.13
2023-03-26T11:20:33.546Z,4.88
2023-03-26T11:23:24.364Z,5.30
2023-03-26T11:26:07.115Z,4.88
2023-03-26T11:29:03.227Z,5.10
2023-03-26T11:31:42.511Z,4.93
2023-03-26T11:34:15.732Z,5.03
2023-03-26T11:36:45.225Z,4.80
2023-03-26T11:39:15.335Z,4.68
2023-03-26T11:41:43.139Z,5.05
2023-03-26T11:44:16.613Z,4.85
2023-03-26T11:49:18.560Z,5.32
2023-03-26T11:51:48.920Z,5.05
2023-03-26T11:54:17.862Z,5.00
2023-03-26T11:57:05.387Z,3.92
2023-03-26T11:59:45.181Z,4.13
2023-03-26T12:02:29.105Z,3.90
2023-03-26T12:05:13.128Z,3.92
2023-03-26T12:07:46.954Z,3.67
2023-03-26T12:10:27.198Z,4.17
2023-03-26T12:12:56.766Z,3.78
2023-03-26T12:15:26.093Z,3.53
2023-03-26T12:17:56.970Z,4.15
2023-03-26T12:20:42.719Z,3.50
2023-03-26T12:23:46.525Z,3.85
2023-03-26T12:26:17.421Z,4.00
2023-03-26T12:28:46.622Z,3.75
2023-03-26T12:31:18.151Z,3.25
2023-03-26T12:34:05.016Z,3.50
2023-03-26T12:36:35.842Z,3.60
2023-03-26T12:40:06.775Z,3.58
2023-03-26T12:44:53.413Z,2.92
2023-03-26T12:45:14.793Z,3.20
2023-03-26T12:47:57.561Z,2.63
2023-03-26T12:50:38.245Z,2.85
2023-03-26T12:53:15.887Z,3.20
2023-03-26T12:55:51.206Z,3.10
2023-03-26T12:58:51.247Z,3.08
2023-03-26T13:01:28.003Z,2.63
2023-03-26T13:04:17.413Z,3.00
2023-03-26T13:07:00.649Z,3.38
2023-03-26T13:09:44.692Z,3.25
2023-03-26T13:12:23.024Z,2.90
2023-03-26T13:15:10.807Z,2.70
2023-03-26T13:17:42.954Z,2.80
2023-03-26T13:20:15.649Z,2.85
2023-03-26T13:22:51.454Z,2.53
2023-03-26T13:25:26.032Z,2.88
2023-03-26T13:28:00.473Z,3.35
2023-03-26T13:30:33.437Z,3.33
2023-03-26T13:33:24.882Z,2.47
2023-03-26T13:36:10.303Z,3.45
2023-03-26T13:38:58.535Z,3.15
2023-03-26T13:41:34.357Z,3.50
2023-03-26T13:44:06.768Z,3.15
2023-03-26T13:46:37.096Z,2.53
2023-03-26T13:49:10.537Z,2.30
2023-03-26T13:51:41.767Z,2.17
2023-03-26T13:54:17.469Z,2.40
2023-03-26T13:56:48.754Z,1.80
2023-03-26T13:59:20.605Z,1.60
2023-03-26T14:01:52.470Z,1.73
2023-03-26T14:04:24.014Z,1.30
2023-03-26T14:06:57.525Z,1.30
2023-03-26T14:09:32.673Z,1.75
2023-03-26T14:12:22.044Z,1.77
2023-03-26T14:14:54.319Z,1.33
2023-03-26T14:17:25.670Z,1.70
2023-03-26T14:20:34.863Z,1.50
2023-03-26T14:23:12.793Z,1.53
2023-03-26T14:25:55.948Z,2.22
2023-03-26T14:29:14.197Z,2.08
2023-03-26T14:31:46.341Z,1.83
2023-03-26T14:34:26.229Z,1.70
2023-03-26T14:37:33.471Z,1.88
2023-03-26T14:40:18.217Z,1.80
2023-03-26T14:42:56.465Z,1.95
2023-03-26T14:45:39.366Z,2.08
2023-03-26T14:48:31.609Z,2.05
2023-03-26T14:51:10.299Z,1.45
2023-03-26T14:53:40.170Z,1.67
2023-03-26T14:58:04.319Z,1.40
2023-03-26T15:00:49.598Z,1.92
2023-03-26T15:06:04.795Z,1.75
2023-03-26T15:09:06.697Z,1.52
2023-03-26T15:11:42.927Z,1.65
2023-03-26T15:14:47.558Z,1.65
2023-03-26T15:18:02.586Z,2.08
2023-03-26T15:20:53.213Z,1.50
2023-03-26T15:24:09.078Z,1.40
2023-03-26T15:27:19.682Z,2.17
2023-03-26T15:30:11.518Z,1.77
2023-03-26T15:33:06.511Z,1.80
2023-03-26T15:35:51.207Z,1.45
2023-03-26T15:38:42.774Z,1.65
2023-03-26T15:41:17.823Z,2.45
2023-03-26T15:44:25.102Z,1.80
2023-03-26T15:46:59.221Z,1.70
2023-03-26T15:49:34.440Z,1.67
2023-03-26T15:52:09.192Z,1.85
2023-03-26T15:54:46.629Z,1.40
2023-03-26T15:57:21.841Z,1.70
2023-03-26T15:59:57.593Z,1.48
2023-03-26T16:02:34.783Z,2.10
2023-03-26T16:05:21.249Z,2.10
2023-03-26T16:07:55.613Z,2.70
2023-03-26T16:10:29.212Z,2.75
2023-03-26T16:13:24.373Z,2.10
2023-03-26T16:15:56.135Z,2.15
2023-03-26T16:18:29.927Z,2.93
2023-03-26T16:21:30.587Z,2.50
2023-03-26T16:24:13.504Z,2.00
2023-03-26T16:26:49.019Z,2.13
2023-03-26T16:29:19.489Z,1.42
2023-03-26T16:32:17.037Z,2.00
2023-03-26T16:34:51.201Z,1.70
2023-03-26T16:37:50.011Z,1.65
2023-03-26T16:40:34.087Z,1.80
2023-03-26T16:43:14.939Z,2.47
2023-03-26T16:45:51.091Z,2.15
2023-03-26T16:48:25.456Z,1.60
2023-03-26T16:50:57.420Z,1.73
2023-03-26T16:53:33.489Z,1.60
2023-03-26T16:56:04.330Z,1.30
2023-03-26T16:58:37.137Z,1.70
2023-03-26T17:01:16.055Z,2.00
2023-03-26T17:03:48.188Z,1.90
2023-03-26T17:06:29.502Z,1.60
2023-03-26T17:09:10.654Z,2.00
2023-03-26T17:11:50.398Z,1.25
2023-03-26T17:14:29.559Z,1.80
2023-03-26T17:17:24.944Z,2.00
2023-03-26T17:19:57.125Z,1.93
2023-03-26T17:22:34.738Z,1.83
2023-03-26T17:25:05.599Z,1.15
2023-03-26T17:27:38.757Z,1.55
2023-03-26T17:30:39.865Z,1.75
2023-03-26T17:33:24.276Z,1.50
2023-03-26T17:35:52.885Z,1.85
2023-03-26T17:39:00.215Z,1.45
2023-03-26T17:41:51.034Z,1.85
2023-03-26T17:44:39.570Z,1.90
2023-03-26T17:47:11.612Z,1.50
2023-03-26T17:49:40.872Z,1.23
2023-03-26T17:52:18.456Z,1.38
2023-03-26T17:54:47.278Z,1.33
2023-03-26T17:57:17.664Z,1.60
2023-03-26T17:59:46.408Z,1.70
2023-03-26T18:02:17.602Z,1.50
2023-03-26T18:04:48.394Z,1.08
2023-03-26T18:07:45.858Z,1.42
2023-03-26T18:10:22.617Z,1.17
2023-03-26T18:13:06.568Z,1.52
2023-03-26T18:15:48.430Z,1.35
2023-03-26T18:18:19.964Z,1.88
2023-03-26T18:20:50.751Z,1.35
2023-03-26T18:23:24.783Z,1.75
2023-03-26T18:25:57.572Z,1.67
2023-03-26T18:28:31.732Z,2.38
2023-03-26T18:31:10.427Z,1.50
2023-03-26T18:33:45.406Z,1.70
2023-03-26T18:36:16.089Z,1.70
2023-03-26T18:38:44.046Z,1.50
2023-03-26T18:41:22.481Z,1.43
2023-03-26T18:43:50.199Z,1.70
2023-03-26T18:46:18.041Z,1.35
2023-03-26T18:48:47.626Z,1.58
2023-03-26T18:51:22.763Z,1.45
2023-03-26T18:53:52.663Z,1.13
2023-03-26T18:56:28.378Z,1.60
2023-03-26T18:58:58.763Z,1.85
2023-03-26T19:01:30.678Z,1.90
2023-03-26T19:03:59.550Z,1.15
2023-03-26T19:06:29.003Z,1.60
2023-03-26T19:08:57.203Z,1.50
2023-03-26T19:11:25.600Z,1.55
2023-03-26T19:14:03.343Z,2.33
2023-03-26T19:16:34.015Z,2.37
2023-03-26T19:19:04.760Z,1.80
2023-03-26T19:21:34.488Z,1.52
2023-03-26T19:24:03.753Z,1.90
2023-03-26T19:26:31.634Z,1.83
2023-03-26T19:29:00.766Z,1.67
2023-03-26T19:31:33.893Z,1.53
2023-03-26T19:34:03.245Z,1.70
2023-03-26T19:36:32.363Z,1.70
2023-03-26T19:39:12.485Z,1.30
2023-03-26T19:41:42.586Z,1.25
2023-03-26T19:44:20.521Z,1.50
2023-03-26T19:46:53.282Z,1.60
2023-03-26T19:49:28.558Z,1.90
2023-03-26T19:52:05.126Z,1.77
2023-03-26T19:54:59.780Z,1.38
2023-03-26T19:57:32.160Z,2.03
2023-03-26T20:00:00.681Z,1.67
2023-03-26T20:02:28.731Z,2.20
2023-03-26T20:04:56.474Z,1.90
2023-03-26T20:07:35.362Z,2.10
2023-03-26T20:10:05.729Z,1.92
2023-03-26T20:12:33.714Z,1.60
2023-03-26T20:15:01.837Z,2.15
2023-03-26T20:17:30.812Z,1.75
2023-03-26T20:19:58.843Z,1.58
2023-03-26T20:22:26.758Z,2.15
2023-03-26T20:24:54.663Z,1.73
2023-03-26T20:27:23.888Z,1.90
2023-03-26T20:29:51.613Z,1.80
2023-03-26T20:32:23.671Z,1.58
2023-03-26T20:34:52.982Z,1.37
2023-03-26T20:37:20.693Z,2.00
2023-03-26T20:39:48.426Z,1.70
2023-03-26T20:42:16.505Z,1.70
2023-03-26T20:44:45.635Z,1.73
2023-03-26T20:47:14.193Z,2.05
2023-03-26T20:49:43.216Z,2.27
2023-03-26T20:52:13.511Z,2.38
2023-03-26T20:54:41.829Z,1.70
2023-03-26T20:57:11.805Z,2.15
2023-03-26T20:59:39.862Z,2.25
2023-03-26T21:02:10.812Z,2.00
2023-03-26T21:04:38.516Z,1.88
2023-03-26T21:07:17.623Z,2.40
2023-03-26T21:09:47.364Z,2.40
2023-03-26T21:12:20.502Z,1.95
2023-03-26T21:14:48.692Z,1.80
2023-03-26T21:17:20.025Z,2.15
2023-03-26T21:19:49.211Z,1.52
2023-03-26T21:22:26.272Z,1.73
2023-03-26T21:25:05.387Z,1.40
2023-03-26T21:27:39.850Z,1.83
2023-03-26T21:30:14.395Z,1.85
2023-03-26T21:32:45.519Z,1.40
2023-03-26T21:35:14.948Z,1.33
2023-03-26T21:37:44.029Z,1.35
2023-03-26T21:40:16.690Z,0.85
2023-03-26T21:42:46.069Z,1.45
2023-03-26T21:45:14.406Z,1.65
2023-03-26T21:47:44.097Z,1.17
2023-03-26T21:50:14.455Z,1.10
2023-03-26T21:52:47.808Z,1.00
2023-03-26T21:55:17.752Z,1.52
2023-03-26T21:58:09.969Z,1.25
2023-03-26T22:00:43.860Z,1.30
2023-03-26T22:03:19.461Z,1.70
2023-03-26T22:05:51.576Z,1.35
2023-03-26T22:08:25.778Z,1.13
2023-03-26T22:10:53.773Z,1.02
2023-03-26T22:13:21.645Z,1.20
2023-03-26T22:15:49.444Z,1.10
2023-03-26T22:18:21.398Z,1.55
2023-03-26T22:20:50.115Z,1.70
2023-03-26T22:23:18.146Z,1.55
2023-03-26T22:25:45.881Z,1.40
2023-03-26T22:28:13.992Z,1.30
2023-03-26T22:30:41.905Z,1.30
2023-03-26T22:33:10.905Z,1.40
2023-03-26T22:35:42.476Z,1.42
2023-03-26T22:38:11.723Z,1.67
2023-03-26T22:40:39.441Z,1.60
2023-03-26T22:43:07.352Z,1.40
2023-03-26T22:45:35.066Z,1.10
2023-03-26T22:48:04.646Z,1.35
2023-03-26T22:50:32.996Z,1.30
2023-03-26T22:53:03.160Z,1.42
2023-03-26T22:55:30.807Z,1.67
2023-03-26T22:57:58.619Z,1.15
2023-03-26T23:00:26.620Z,1.45
2023-03-26T23:02:55.983Z,1.20
2023-03-26T23:05:23.862Z,1.30
2023-03-26T23:07:52.170Z,1.20
2023-03-26T23:10:22.345Z,1.58
2023-03-26T23:12:50.356Z,1.45
2023-03-26T23:15:20.488Z,1.17
2023-03-26T23:17:54.912Z,1.35
2023-03-26T23:20:23.076Z,1.73
2023-03-26T23:22:50.804Z,1.37
2023-03-26T23:25:19.907Z,1.30
2023-03-26T23:27:50.614Z,1.55
2023-03-26T23:30:19.241Z,1.30
2023-03-26T23:32:47.348Z,1.40
2023-03-26T23:35:16.079Z,1.60
2023-03-26T23:37:43.838Z,1.65
2023-03-26T23:40:13.260Z,1.30
2023-03-26T23:42:41.842Z,1.40
2023-03-26T23:45:13.076Z,1.08
2023-03-26T23:47:42.255Z,1.23
2023-03-26T23:50:11.548Z,1.60
2023-03-26T23:52:40.286Z,1.35
2023-03-26T23:55:08.870Z,1.50
2023-03-26T23:57:37.037Z,1.42
